Time;durP1;ratioP1;P1;durP2;ratioP2;P2;SDS_P1;SDS_P2;PMS_P1;PMS_P2;Temp;Humidity;BMP_temperature;BMP_pressure;BME280_temperature;BME280_humidity;BME280_pressure;Samples;Min_cycle;Max_cycle;Signal;HPM_P1;HPM_P2
2022/04/27 00:00:21;;;;;;;8.63;4.38;;;;;;;6.87;84.56;102311.56;5058970;28;20049;-48
2022/04/27 00:02:49;;;;;;;10.57;4.80;;;;;;;6.79;84.61;102303.06;5059273;28;20075;-51
2022/04/27 00:05:18;;;;;;;7.85;3.83;;;;;;;6.74;84.85;102307.53;5062568;28;20059;-50
2022/04/27 00:07:46;;;;;;;7.55;3.90;;;;;;;6.72;84.41;102309.31;5062475;28;20094;-49
2022/04/27 00:10:18;;;;;;;9.00;4.15;;;;;;;6.68;84.90;102312.91;5053517;28;20126;-52
2022/04/27 00:12:47;;;;;;;11.07;4.05;;;;;;;6.71;84.54;102312.88;5049924;28;20051;-49
2022/04/27 00:15:16;;;;;;;10.43;4.65;;;;;;;6.53;85.10;102307.19;5047327;28;20045;-49
2022/04/27 00:17:44;;;;;;;9.45;4.03;;;;;;;6.55;84.74;102304.53;5049630;28;20045;-47
2022/04/27 00:20:12;;;;;;;8.75;4.07;;;;;;;6.30;86.94;102301.66;5049040;28;20049;-49
2022/04/27 00:22:41;;;;;;;8.65;4.68;;;;;;;6.35;86.81;102305.88;5047287;28;20072;-49
2022/04/27 00:25:09;;;;;;;8.98;4.30;;;;;;;6.50;85.75;102299.41;5050967;28;20067;-52
2022/04/27 00:27:39;;;;;;;10.25;4.28;;;;;;;6.46;85.93;102297.75;5049964;28;20076;-50
2022/04/27 00:30:09;;;;;;;10.88;4.57;;;;;;;6.42;86.34;102301.34;5047565;28;20098;-51
2022/04/27 00:32:37;;;;;;;10.10;4.05;;;;;;;6.37;86.34;102298.00;5049289;28;20055;-50
2022/04/27 00:35:08;;;;;;;10.07;4.50;;;;;;;6.34;86.76;102306.78;5051100;28;20076;-52
2022/04/27 00:37:36;;;;;;;8.88;4.72;;;;;;;6.34;87.42;102308.53;5051405;28;20484;-48
2022/04/27 00:40:05;;;;;;;8.05;4.40;;;;;;;6.37;86.94;102301.47;5051501;28;20049;-49
2022/04/27 00:42:34;;;;;;;11.35;4.97;;;;;;;6.39;86.88;102301.44;5053154;28;20120;-51
2022/04/27 00:45:05;;;;;;;8.07;4.20;;;;;;;6.34;87.84;102311.13;5051565;28;20082;-47
2022/04/27 00:47:33;;;;;;;12.02;5.10;;;;;;;6.38;87.12;102316.25;5053873;28;20439;-52
2022/04/27 00:50:02;;;;;;;8.40;4.60;;;;;;;6.21;87.74;102319.25;5054761;28;20064;-49
2022/04/27 00:52:32;;;;;;;10.85;4.68;;;;;;;6.26;87.83;102309.56;5054413;28;20120;-51
2022/04/27 00:55:00;;;;;;;9.30;4.72;;;;;;;6.28;87.54;102311.28;5050996;28;20459;-53
2022/04/27 00:57:29;;;;;;;9.73;5.15;;;;;;;6.29;87.44;102316.47;5052131;28;20412;-50
2022/04/27 00:59:57;;;;;;;10.10;5.00;;;;;;;6.23;87.27;102314.88;5051266;28;20057;-52
2022/04/27 01:02:27;;;;;;;10.20;4.50;;;;;;;6.31;87.39;102319.91;5051314;28;20041;-52
2022/04/27 01:04:55;;;;;;;9.02;4.43;;;;;;;6.31;86.95;102325.13;5053401;28;20098;-50
2022/04/27 01:07:25;;;;;;;8.05;4.28;;;;;;;6.25;86.13;102326.13;5049678;28;20053;-46
2022/04/27 01:09:53;;;;;;;8.75;4.63;;;;;;;6.18;87.38;102321.94;5052093;28;20490;-49
2022/04/27 01:12:22;;;;;;;9.00;4.30;;;;;;;6.11;88.73;102320.38;5054483;28;20041;-51
2022/04/27 01:14:51;;;;;;;9.93;4.63;;;;;;;6.10;87.51;102321.28;5054309;28;20075;-50
2022/04/27 01:17:22;;;;;;;8.57;4.40;;;;;;;6.08;88.56;102326.53;5054395;28;20041;-48
2022/04/27 01:19:52;;;;;;;10.60;5.03;;;;;;;5.98;88.68;102321.53;5053392;28;20500;-49
2022/04/27 01:22:21;;;;;;;9.32;4.53;;;;;;;5.95;89.67;102326.81;5051053;28;20195;-49
2022/04/27 01:24:50;;;;;;;9.52;4.45;;;;;;;6.00;88.77;102327.59;5052838;28;20507;-48
2022/04/27 01:27:18;;;;;;;10.48;4.20;;;;;;;5.97;89.93;102330.22;5054408;28;20065;-52
2022/04/27 01:29:47;;;;;;;8.77;4.90;;;;;;;5.89;89.52;102326.06;5053138;28;20129;-50
2022/04/27 01:32:15;;;;;;;10.27;4.60;;;;;;;5.95;89.19;102330.28;5050662;28;20049;-50
2022/04/27 01:34:44;;;;;;;9.40;4.80;;;;;;;5.97;89.85;102330.22;5051219;28;20140;-51
2022/04/27 01:39:59;;;;;;;10.93;5.03;;;;;;;5.86;90.51;102340.91;5053844;28;20091;-51
2022/04/27 01:42:27;;;;;;;10.95;4.88;;;;;;;5.85;90.36;102336.56;5054306;28;20069;-49
2022/04/27 01:44:56;;;;;;;10.95;5.47;;;;;;;5.84;90.83;102345.31;5052484;28;20422;-49
2022/04/27 01:47:24;;;;;;;12.63;5.03;;;;;;;5.81;91.11;102342.75;5051261;28;20148;-48
2022/04/27 01:49:52;;;;;;;9.25;4.70;;;;;;;5.79;91.39;102347.16;5052291;28;20041;-53
2022/04/27 01:55:13;;;;;;;10.30;4.78;;;;;;;5.73;92.18;102348.16;4979350;28;20137;-48
2022/04/27 01:57:41;;;;;;;8.52;4.78;;;;;;;5.72;90.87;102344.66;5053749;28;20049;-49
2022/04/27 02:00:11;;;;;;;8.48;4.90;;;;;;;5.69;90.78;102344.75;5053492;28;20404;-50
2022/04/27 02:02:40;;;;;;;11.93;4.78;;;;;;;5.62;90.57;102348.38;5050896;28;20563;-50
2022/04/27 02:05:09;;;;;;;11.20;5.05;;;;;;;5.55;91.08;102346.78;5050341;28;20057;-51
2022/04/27 02:07:37;;;;;;;9.90;4.90;;;;;;;5.52;91.55;102349.44;5053373;28;20135;-48
2022/04/27 02:10:06;;;;;;;10.77;4.93;;;;;;;5.41;92.97;102353.13;5053409;28;20451;-47
2022/04/27 02:12:36;;;;;;;8.50;4.40;;;;;;;5.37;93.05;102354.09;5053591;28;20049;-48
2022/04/27 02:15:06;;;;;;;11.48;4.65;;;;;;;5.31;92.94;102358.56;5053483;28;20096;-49
2022/04/27 02:17:35;;;;;;;9.52;4.90;;;;;;;5.29;94.62;102357.72;5052714;28;20053;-50
2022/04/27 02:20:04;;;;;;;11.23;4.60;;;;;;;5.40;93.30;102354.03;5049619;28;20040;-50
2022/04/27 02:22:34;;;;;;;8.95;4.82;;;;;;;5.31;94.23;102362.00;5049945;28;20102;-53
2022/04/27 02:25:03;;;;;;;11.75;5.63;;;;;;;5.27;94.25;102364.72;5052974;28;20044;-49
2022/04/27 02:27:31;;;;;;;10.98;4.80;;;;;;;5.28;94.34;102374.28;5052832;28;20048;-48
2022/04/27 02:30:01;;;;;;;8.82;5.03;;;;;;;5.28;95.17;102372.53;5052705;28;20057;-53
2022/04/27 02:32:29;;;;;;;9.95;4.85;;;;;;;5.20;95.63;102375.25;5053021;28;20140;-52
2022/04/27 02:34:57;;;;;;;11.93;5.10;;;;;;;5.18;96.37;102368.34;5048804;28;20041;-50
2022/04/27 02:37:25;;;;;;;9.32;5.28;;;;;;;5.09;97.11;102377.22;5050630;28;20118;-50
2022/04/27 02:39:54;;;;;;;11.65;5.55;;;;;;;5.03;97.16;102377.31;5052664;28;20487;-47
2022/04/27 02:42:22;;;;;;;11.75;5.03;;;;;;;5.01;97.07;102371.25;5052582;28;20052;-51
2022/04/27 02:44:51;;;;;;;10.32;5.30;;;;;;;4.88;97.89;102368.88;5052705;28;20621;-49
2022/04/27 02:47:20;;;;;;;9.50;5.00;;;;;;;4.96;97.77;102378.31;5052872;28;20072;-48
2022/04/27 02:52:34;;;;;;;12.05;5.22;;;;;;;4.95;96.97;102390.50;5052773;28;20052;-54
2022/04/27 02:55:03;;;;;;;12.45;5.13;;;;;;;4.96;96.76;102380.91;5052416;28;20518;-53
2022/04/27 02:57:31;;;;;;;11.48;5.18;;;;;;;4.85;97.17;102383.69;5047282;28;20049;-48
2022/04/27 02:59:59;;;;;;;8.80;5.18;;;;;;;4.80;97.84;102390.72;5049510;28;20116;-52
2022/04/27 03:02:29;;;;;;;10.30;5.45;;;;;;;4.77;98.55;102385.56;5052792;28;20049;-53
2022/04/27 03:04:58;;;;;;;12.45;5.60;;;;;;;4.69;98.59;102390.88;5051834;28;20522;-49
2022/04/27 03:07:26;;;;;;;9.52;5.05;;;;;;;4.77;97.81;102396.00;5052134;28;20443;-49
2022/04/27 03:09:54;;;;;;;11.50;5.10;;;;;;;4.73;97.41;102400.38;5048161;28;20828;-49
2022/04/27 03:12:23;;;;;;;8.88;5.07;;;;;;;4.68;97.95;102397.84;5047386;28;20056;-48
2022/04/27 03:14:51;;;;;;;10.73;5.88;;;;;;;4.73;97.57;102403.00;5052176;28;20068;-51
2022/04/27 03:17:20;;;;;;;8.68;5.30;;;;;;;4.75;97.90;102401.22;5052152;28;20044;-53
2022/04/27 03:19:49;;;;;;;10.48;4.88;;;;;;;4.59;98.63;102403.22;5052092;28;20161;-50
2022/04/27 03:22:17;;;;;;;10.55;5.45;;;;;;;4.55;99.00;102398.94;5052087;28;20051;-50
2022/04/27 03:24:46;;;;;;;7.97;5.00;;;;;;;4.47;98.18;102396.47;5052145;28;20099;-49
2022/04/27 03:27:14;;;;;;;12.43;6.20;;;;;;;4.49;98.76;102401.63;5052016;28;20106;-50
2022/04/27 03:29:42;;;;;;;10.63;5.28;;;;;;;4.46;98.81;102397.34;5052025;28;20045;-51
2022/04/27 03:32:11;;;;;;;11.75;6.03;;;;;;;4.49;98.82;102397.28;5048899;28;20049;-52
2022/04/27 03:34:39;;;;;;;8.88;5.22;;;;;;;4.50;97.35;102399.00;5048430;28;20537;-49
2022/04/27 03:37:09;;;;;;;12.10;5.85;;;;;;;4.37;98.78;102397.47;5050310;28;20061;-52
2022/04/27 03:39:37;;;;;;;14.45;6.07;;;;;;;4.38;99.19;102402.66;5051741;28;20092;-53
2022/04/27 03:42:11;;;;;;;10.80;6.22;;;;;;;4.41;99.32;102401.75;5050404;28;20063;-50
2022/04/27 03:44:39;;;;;;;11.32;6.30;;;;;;;4.34;99.78;102393.16;5051662;28;20045;-52
2022/04/27 03:47:08;;;;;;;10.68;5.97;;;;;;;4.34;99.92;102402.72;5051631;28;20112;-50
2022/04/27 03:49:36;;;;;;;13.30;5.97;;;;;;;4.27;100.00;102407.16;5051163;28;20124;-51
2022/04/27 03:52:05;;;;;;;9.20;5.80;;;;;;;4.30;100.00;102401.91;5046795;28;20419;-49
2022/04/27 03:54:35;;;;;;;13.50;5.78;;;;;;;4.21;100.00;102410.72;5049665;28;20439;-50
2022/04/27 03:57:04;;;;;;;13.50;5.95;;;;;;;4.18;100.00;102408.13;5051491;28;20049;-52
2022/04/27 03:59:32;;;;;;;10.57;5.50;;;;;;;4.23;99.64;102411.53;5051589;28;20500;-49
2022/04/27 04:02:01;;;;;;;11.80;5.55;;;;;;;4.27;98.13;102412.38;5051632;28;20568;-52
2022/04/27 04:04:29;;;;;;;12.77;6.00;;;;;;;4.22;100.00;102415.00;5051658;28;20037;-49
2022/04/27 04:06:58;;;;;;;12.93;6.05;;;;;;;4.13;100.00;102417.75;5051167;28;20059;-45
2022/04/27 04:09:26;;;;;;;11.55;5.72;;;;;;;4.15;100.00;102415.13;5050155;28;20044;-47
2022/04/27 04:11:56;;;;;;;12.05;5.97;;;;;;;4.12;100.00;102417.75;5051425;28;20075;-47
2022/04/27 04:14:24;;;;;;;10.43;5.85;;;;;;;4.13;100.00;102422.09;5050849;28;20076;-48
2022/04/27 04:16:53;;;;;;;12.30;5.60;;;;;;;4.03;100.00;102429.16;5051157;28;20190;-50
2022/04/27 04:19:21;;;;;;;10.90;5.90;;;;;;;3.95;100.00;102425.78;5051285;28;20123;-49
2022/04/27 04:21:49;;;;;;;11.77;5.60;;;;;;;3.99;100.00;102423.13;5051180;28;20087;-49
2022/04/27 04:24:18;;;;;;;11.38;6.18;;;;;;;3.95;100.00;102425.78;5048719;28;20455;-48
2022/04/27 04:29:33;;;;;;;10.73;6.75;;;;;;;3.87;100.00;102431.97;5050565;28;20101;-50
2022/04/27 04:32:01;;;;;;;12.25;6.38;;;;;;;3.96;100.00;102430.97;5047371;28;20454;-52
2022/04/27 04:34:30;;;;;;;11.57;6.45;;;;;;;3.95;100.00;102436.22;5049557;28;20060;-51
2022/04/27 04:36:58;;;;;;;13.40;7.13;;;;;;;3.91;100.00;102440.56;5051092;28;20052;-51
2022/04/27 04:39:27;;;;;;;13.60;6.85;;;;;;;3.89;100.00;102444.97;5051406;28;20072;-48
2022/04/27 04:41:55;;;;;;;11.30;6.53;;;;;;;3.94;100.00;102443.16;5049207;28;20071;-51
2022/04/27 04:44:24;;;;;;;13.70;6.45;;;;;;;3.90;100.00;102438.88;5047402;28;20060;-49
2022/04/27 04:46:53;;;;;;;15.48;6.70;;;;;;;3.96;100.00;102449.19;5049743;28;20492;-51
2022/04/27 04:49:22;;;;;;;13.95;6.53;;;;;;;3.96;100.00;102448.34;5048554;28;20076;-52
2022/04/27 04:51:50;;;;;;;11.48;5.90;;;;;;;3.93;100.00;102445.75;5046094;28;20139;-48
2022/04/27 04:54:19;;;;;;;12.60;6.13;;;;;;;3.95;100.00;102455.28;5050400;28;20052;-50
2022/04/27 04:56:48;;;;;;;10.32;6.35;;;;;;;3.87;100.00;102451.91;5050770;28;20056;-50
2022/04/27 04:59:16;;;;;;;9.93;6.10;;;;;;;4.02;100.00;102454.34;5050869;28;20076;-49
2022/04/27 05:01:45;;;;;;;14.27;6.10;;;;;;;3.94;100.00;102455.31;5051275;28;20052;-51
2022/04/27 05:04:15;;;;;;;13.13;6.30;;;;;;;3.95;100.00;102462.25;5050894;28;20049;-51
2022/04/27 05:06:44;;;;;;;12.27;7.05;;;;;;;3.99;100.00;102469.97;5050873;28;20080;-50
2022/04/27 05:09:13;;;;;;;12.25;6.30;;;;;;;4.02;100.00;102456.94;5049252;28;20049;-49
2022/04/27 05:11:41;;;;;;;12.98;7.00;;;;;;;4.01;100.00;102462.19;5045601;28;20124;-47
2022/04/27 05:14:09;;;;;;;15.77;7.30;;;;;;;4.03;100.00;102471.66;5048821;28;20076;-49
2022/04/27 05:16:38;;;;;;;11.07;5.97;;;;;;;4.11;100.00;102475.94;5051053;28;20231;-49
2022/04/27 05:19:09;;;;;;;11.75;6.90;;;;;;;4.15;100.00;102475.03;5050727;28;20562;-51
2022/04/27 05:21:39;;;;;;;13.32;6.82;;;;;;;4.21;100.00;102482.75;5050263;28;20124;-48
2022/04/27 05:24:07;;;;;;;13.23;6.53;;;;;;;4.23;100.00;102486.22;5050495;28;20103;-47
2022/04/27 05:26:35;;;;;;;11.32;6.93;;;;;;;4.15;100.00;102485.44;5051967;28;20492;-48
2022/04/27 05:31:55;;;;;;;12.70;6.75;;;;;;;4.38;100.00;102493.81;5051206;28;20041;-48
2022/04/27 05:34:25;;;;;;;10.70;6.43;;;;;;;4.34;100.00;102501.72;5052258;28;20122;-51
2022/04/27 05:36:54;;;;;;;12.55;6.90;;;;;;;4.35;100.00;102503.41;5049889;28;20052;-50
2022/04/27 05:39:23;;;;;;;13.40;6.40;;;;;;;4.44;100.00;102500.69;5052913;28;20057;-53
2022/04/27 05:41:52;;;;;;;12.70;7.38;;;;;;;4.48;100.00;102504.97;5053810;28;20492;-49
2022/04/27 05:44:22;;;;;;;16.23;7.18;;;;;;;4.53;100.00;102513.63;5053910;28;20057;-47
2022/04/27 05:46:51;;;;;;;12.18;7.10;;;;;;;4.59;100.00;102517.03;5054182;28;20057;-47
2022/04/27 05:49:19;;;;;;;12.73;7.50;;;;;;;4.64;100.00;102510.88;5054117;28;20037;-47
2022/04/27 05:51:48;;;;;;;13.52;7.95;;;;;;;4.72;100.00;102519.44;5053873;28;20563;-50
2022/04/27 05:54:18;;;;;;;13.60;7.95;;;;;;;4.83;100.00;102524.50;5050821;28;20437;-51
2022/04/27 05:56:46;;;;;;;16.35;8.45;;;;;;;4.91;100.00;102521.78;5049232;28;20037;-50
2022/04/27 05:59:14;;;;;;;14.82;8.38;;;;;;;4.99;100.00;102530.38;5053802;28;20095;-47
2022/04/27 06:01:45;;;;;;;15.73;7.78;;;;;;;5.08;100.00;102527.63;5053796;28;20051;-51
2022/04/27 06:04:17;;;;;;;13.60;8.07;;;;;;;5.15;100.00;102533.56;5053903;28;20500;-50
2022/04/27 06:06:46;;;;;;;17.88;8.57;;;;;;;5.27;100.00;102542.13;5050111;28;20045;-49
2022/04/27 06:09:14;;;;;;;16.40;9.13;;;;;;;5.32;100.00;102540.31;5050350;28;20118;-51
2022/04/27 06:11:44;;;;;;;14.15;8.30;;;;;;;5.42;100.00;102544.47;5053700;28;20043;-49
2022/04/27 06:14:12;;;;;;;17.85;8.65;;;;;;;5.55;100.00;102535.56;5053771;28;20389;-50
2022/04/27 06:16:41;;;;;;;17.77;7.82;;;;;;;5.65;100.00;102538.88;5051390;28;20488;-52
2022/04/27 06:19:10;;;;;;;14.30;8.70;;;;;;;5.76;100.00;102539.53;5049500;28;20049;-48
2022/04/27 06:21:38;;;;;;;16.60;9.55;;;;;;;5.95;100.00;102548.81;5053238;28;20098;-48
2022/04/27 06:24:07;;;;;;;18.00;9.10;;;;;;;6.07;100.00;102548.59;5053355;28;20071;-51
2022/04/27 06:26:37;;;;;;;16.45;8.20;;;;;;;6.19;100.00;102548.38;5053392;28;20048;-53
2022/04/27 06:29:07;;;;;;;14.05;7.43;;;;;;;6.33;100.00;102550.69;5048852;28;20068;-48
2022/04/27 06:31:35;;;;;;;17.45;7.40;;;;;;;6.46;100.00;102548.69;5049944;28;20080;-52
2022/04/27 06:34:04;;;;;;;13.70;8.05;;;;;;;6.64;100.00;102549.19;5052610;28;20057;-48
2022/04/27 06:36:34;;;;;;;13.68;7.45;;;;;;;6.81;98.75;102549.69;5053327;28;20047;-48
2022/04/27 06:39:04;;;;;;;13.88;6.68;;;;;;;6.93;98.57;102559.88;5052518;28;20049;-54
2022/04/27 06:41:33;;;;;;;14.88;7.45;;;;;;;7.03;97.45;102559.69;5053283;28;20084;-54
2022/04/27 06:44:01;;;;;;;28.67;9.35;;;;;;;7.15;97.30;102559.41;5053117;28;20143;-50
2022/04/27 06:46:30;;;;;;;15.85;6.95;;;;;;;7.32;96.25;102558.13;5053702;28;20415;-50
2022/04/27 06:48:59;;;;;;;11.68;6.70;;;;;;;7.44;96.35;102565.69;5051975;28;20140;-52
2022/04/27 06:51:27;;;;;;;13.27;7.55;;;;;;;7.63;95.14;102562.63;5049742;28;20078;-54
2022/04/27 06:53:56;;;;;;;13.50;6.63;;;;;;;7.73;93.90;102571.94;5051048;28;20052;-51
2022/04/27 06:56:24;;;;;;;14.82;6.80;;;;;;;7.85;93.92;102568.16;5048934;28;20147;-52
2022/04/27 06:58:53;;;;;;;15.88;6.72;;;;;;;8.04;92.69;102571.16;5048955;28;20049;-53
2022/04/27 07:01:21;;;;;;;11.95;6.82;;;;;;;8.11;90.72;102576.19;5052982;28;20052;-53
2022/04/27 07:03:55;;;;;;;12.30;6.50;;;;;;;8.25;90.54;102575.81;5052922;28;20091;-52
2022/04/27 07:06:24;;;;;;;14.10;6.28;;;;;;;8.45;91.77;102577.03;5051010;28;20041;-53
2022/04/27 07:08:56;;;;;;;13.18;6.18;;;;;;;8.65;89.67;102583.47;5048313;28;20099;-53
2022/04/27 07:11:24;;;;;;;11.50;5.75;;;;;;;8.83;86.55;102582.06;5051903;28;20412;-53
2022/04/27 07:13:54;;;;;;;10.55;5.25;;;;;;;8.96;85.51;102584.25;5052361;28;20061;-53
2022/04/27 07:16:23;;;;;;;11.77;5.43;;;;;;;9.11;85.55;102588.19;5051080;28;20037;-53
2022/04/27 07:18:53;;;;;;;8.52;5.35;;;;;;;9.26;83.43;102586.00;5048823;28;20068;-52
2022/04/27 07:21:22;;;;;;;12.05;5.85;;;;;;;9.45;82.41;102591.50;5051359;28;20128;-51
2022/04/27 07:23:50;;;;;;;10.15;5.68;;;;;;;9.70;82.33;102594.16;5052258;28;20124;-52
2022/04/27 07:26:19;;;;;;;13.93;6.03;;;;;;;9.78;79.99;102596.56;5052319;28;20049;-51
2022/04/27 07:28:47;;;;;;;10.02;5.75;;;;;;;9.95;79.95;102595.97;5051979;28;20200;-52
2022/04/27 07:31:15;;;;;;;8.93;5.00;;;;;;;10.12;78.08;102598.00;5050081;28;20052;-50
2022/04/27 07:33:44;;;;;;;10.13;5.10;;;;;;;10.32;78.28;102602.53;5048708;28;20083;-51
2022/04/27 07:36:13;;;;;;;9.80;5.30;;;;;;;10.52;76.34;102596.59;5051405;28;20068;-52
2022/04/27 07:38:42;;;;;;;9.60;4.95;;;;;;;10.68;73.83;102601.31;5048050;28;20068;-49
2022/04/27 07:41:11;;;;;;;10.00;5.68;;;;;;;10.80;73.29;102596.41;5049043;28;20445;-53
2022/04/27 07:43:40;;;;;;;14.13;5.40;;;;;;;10.93;73.00;102602.06;5051073;28;20105;-49
2022/04/27 07:46:09;;;;;;;10.52;4.97;;;;;;;11.02;73.03;102602.63;5047943;28;20045;-51
2022/04/27 07:48:37;;;;;;;10.57;5.28;;;;;;;11.02;72.13;102603.47;5050588;28;20416;-52
2022/04/27 07:51:06;;;;;;;9.68;3.80;;;;;;;11.25;69.59;102604.38;5050959;28;20445;-50
2022/04/27 07:53:36;;;;;;;11.70;4.68;;;;;;;11.39;70.36;102611.72;5051371;28;20044;-54
2022/04/27 07:56:05;;;;;;;7.85;3.42;;;;;;;11.61;66.92;102604.63;5051598;28;20514;-52
2022/04/27 07:58:34;;;;;;;8.07;3.55;;;;;;;11.58;65.60;102612.66;5051958;28;20557;-47
2022/04/27 08:01:09;;;;;;;7.97;2.50;;;;;;;11.79;65.79;102610.91;5051368;28;20044;-50
2022/04/27 08:03:37;;;;;;;7.68;3.33;;;;;;;11.84;64.55;102618.63;5051488;28;20056;-50
2022/04/27 08:06:06;;;;;;;7.97;3.50;;;;;;;11.87;61.22;102615.84;5051717;28;20373;-49
2022/04/27 08:08:37;;;;;;;8.23;3.55;;;;;;;12.16;61.03;102614.63;5051568;28;20061;-49
2022/04/27 08:11:07;;;;;;;11.30;4.10;;;;;;;12.39;59.43;102612.75;5051753;28;20792;-52
2022/04/27 08:13:35;;;;;;;9.55;3.78;;;;;;;12.61;59.98;102612.66;5049527;28;20041;-52
2022/04/27 08:16:04;;;;;;;7.35;3.40;;;;;;;12.76;57.25;102616.38;5047542;28;20044;-50
2022/04/27 08:18:34;;;;;;;5.60;2.40;;;;;;;12.80;55.31;102617.06;5050150;28;20095;-52
2022/04/27 08:23:48;;;;;;;5.40;2.90;;;;;;;12.94;53.26;102619.94;5046979;28;20057;-51
2022/04/27 08:26:17;;;;;;;8.73;2.45;;;;;;;12.99;54.68;102628.50;5047150;28;20060;-50
2022/04/27 08:28:46;;;;;;;6.93;2.50;;;;;;;13.25;52.98;102623.75;5047732;28;20562;-51
2022/04/27 08:31:17;;;;;;;7.20;2.80;;;;;;;13.43;53.53;102627.31;5051114;28;20545;-50
2022/04/27 08:33:46;;;;;;;9.70;3.20;;;;;;;13.61;51.97;102627.34;5049957;28;20372;-50
2022/04/27 08:36:14;;;;;;;7.43;3.17;;;;;;;13.77;51.62;102633.56;5047895;28;20049;-51
2022/04/27 08:38:59;;;;;;;5.00;2.35;;;;;;;13.86;51.46;102629.59;5049980;28;20056;-52
2022/04/27 08:41:28;;;;;;;7.20;2.50;;;;;;;14.00;50.85;102628.88;5051023;28;20408;-50
2022/04/27 08:43:57;;;;;;;5.45;2.00;;;;;;;14.14;49.02;102628.19;5050582;28;20049;-51
2022/04/27 08:46:27;;;;;;;8.15;2.45;;;;;;;14.17;47.92;102622.72;5050744;28;20196;-52
2022/04/27 08:48:56;;;;;;;6.75;2.60;;;;;;;14.53;47.78;102629.66;5050975;28;20064;-52
2022/04/27 08:51:24;;;;;;;7.45;2.72;;;;;;;14.93;49.00;102622.22;5051096;28;20379;-49
2022/04/27 08:53:52;;;;;;;5.28;2.50;;;;;;;14.97;47.45;102620.25;5051021;28;20045;-52
2022/04/27 08:56:23;;;;;;;6.63;2.28;;;;;;;15.20;49.10;102618.94;5048765;28;20056;-53
2022/04/27 08:58:51;;;;;;;7.50;2.58;;;;;;;15.27;48.34;102619.44;5046644;28;20041;-51
2022/04/27 09:01:20;;;;;;;8.93;2.70;;;;;;;15.46;47.92;102622.78;5050646;28;20094;-51
2022/04/27 09:03:48;;;;;;;7.25;2.83;;;;;;;15.69;47.99;102628.53;5051487;28;20037;-52
2022/04/27 09:06:18;;;;;;;6.68;2.53;;;;;;;15.86;45.99;102628.41;5051462;28;20671;-49
2022/04/27 09:08:48;;;;;;;7.00;2.63;;;;;;;16.00;45.56;102632.88;5054575;28;20095;-52
2022/04/27 09:11:20;;;;;;;7.80;2.63;;;;;;;16.36;44.59;102633.41;5054780;28;20539;-52
2022/04/27 09:13:52;;;;;;;7.72;2.80;;;;;;;16.61;43.92;102634.56;5054955;28;20079;-54
2022/04/27 09:16:22;;;;;;;7.38;2.90;;;;;;;16.27;41.75;102629.53;5054324;28;20045;-50
2022/04/27 09:22:01;;;;;;;6.65;2.70;;;;;;;15.93;44.83;102628.91;5054356;28;20053;-52
2022/04/27 09:24:30;;;;;;;7.13;2.78;;;;;;;16.44;44.85;102628.47;5054454;28;20144;-53
2022/04/27 09:27:14;;;;;;;5.47;2.53;;;;;;;16.76;43.00;102622.97;5049358;28;20049;-49
2022/04/27 09:29:44;;;;;;;6.82;2.55;;;;;;;16.75;41.74;102633.69;5051235;28;20136;-53
2022/04/27 09:32:17;;;;;;;6.93;2.70;;;;;;;16.81;41.34;102622.66;5054069;28;20079;-49
2022/04/27 09:34:48;;;;;;;6.53;2.42;;;;;;;17.22;41.12;102627.16;5054210;28;20131;-48
2022/04/27 09:37:17;;;;;;;4.72;2.35;;;;;;;17.43;39.26;102627.53;5054053;28;20526;-52
2022/04/27 09:39:47;;;;;;;6.28;2.70;;;;;;;17.81;38.80;102631.25;5054150;28;20419;-50
2022/04/27 09:42:16;;;;;;;5.47;2.40;;;;;;;17.50;38.62;102627.97;5054168;28;20052;-49
2022/04/27 09:44:45;;;;;;;4.88;2.22;;;;;;;17.62;38.41;102632.47;5054267;28;20421;-48
2022/04/27 09:47:22;;;;;;;6.38;2.60;;;;;;;17.64;38.81;102638.56;5051959;28;20061;-50
2022/04/27 09:49:56;;;;;;;5.00;2.13;;;;;;;17.35;37.97;102625.38;5049300;28;20140;-51
2022/04/27 09:52:28;;;;;;;5.95;2.15;;;;;;;17.18;37.71;102631.81;5053736;28;20110;-49
2022/04/27 09:55:00;;;;;;;4.80;2.00;;;;;;;17.40;38.23;102622.44;5054266;28;20539;-52
2022/04/27 09:57:33;;;;;;;5.07;2.40;;;;;;;17.57;37.18;102629.28;5051069;28;20052;-52
2022/04/27 10:00:04;;;;;;;5.63;2.40;;;;;;;17.52;38.88;102620.75;5049547;28;20065;-50
2022/04/27 10:02:34;;;;;;;5.20;2.10;;;;;;;17.97;38.74;102623.97;5053545;28;20065;-51
2022/04/27 10:05:04;;;;;;;4.88;2.33;;;;;;;18.23;37.33;102621.31;5050364;28;20080;-50
2022/04/27 10:07:34;;;;;;;7.00;2.40;;;;;;;18.28;37.08;102632.47;5051099;28;20053;-52
2022/04/27 10:10:05;;;;;;;7.93;2.50;;;;;;;18.23;35.73;102630.13;5053310;28;20155;-51
2022/04/27 10:12:38;;;;;;;4.70;2.20;;;;;;;18.26;36.68;102631.72;5052978;28;20483;-50
2022/04/27 10:15:09;;;;;;;6.82;2.13;;;;;;;18.10;36.96;102623.09;5053247;28;20567;-51
2022/04/27 10:17:39;;;;;;;6.60;2.28;;;;;;;18.04;37.00;102627.06;5053447;28;20095;-49
2022/04/27 10:20:29;;;;;;;5.55;2.20;;;;;;;18.26;37.94;102622.91;5053158;28;20045;-51
2022/04/27 10:23:24;;;;;;;5.65;2.22;;;;;;;17.78;37.30;102620.78;5053167;28;20427;-50
2022/04/27 10:26:16;;;;;;;5.40;2.13;;;;;;;17.81;37.37;102624.13;5052491;28;20055;-54
2022/04/27 10:28:49;;;;;;;5.00;2.00;;;;;;;17.87;38.25;102620.19;5048848;28;20094;-51
2022/04/27 10:31:54;;;;;;;7.32;2.20;;;;;;;18.00;37.26;102623.75;5052079;28;20129;-53
2022/04/27 10:34:25;;;;;;;7.88;2.13;;;;;;;18.16;36.72;102618.22;5053072;28;20053;-52
2022/04/27 10:36:55;;;;;;;6.40;2.35;;;;;;;18.05;36.36;102623.41;5052987;28;20124;-48
2022/04/27 10:39:26;;;;;;;15.63;8.60;;;;;;;18.23;36.36;102619.47;5050121;28;20144;-52
2022/04/27 10:42:33;;;;;;;55.08;28.52;;;;;;;18.14;36.55;102628.09;5046936;28;20053;-47
2022/04/27 10:45:08;;;;;;;114.13;73.70;;;;;;;18.18;37.56;102621.59;5051442;28;20072;-51
2022/04/27 10:47:38;;;;;;;13.98;5.45;;;;;;;18.36;36.98;102621.28;5049806;28;20122;-52
2022/04/27 10:50:26;;;;;;;5.32;2.40;;;;;;;18.63;36.87;102617.63;5052209;28;20463;-51
2022/04/27 10:52:55;;;;;;;6.10;2.72;;;;;;;18.88;36.23;102611.41;5051643;28;20151;-52
2022/04/27 10:55:48;;;;;;;5.97;2.30;;;;;;;19.24;34.80;102609.66;5048694;28;20874;-51
2022/04/27 10:58:18;;;;;;;6.68;3.55;;;;;;;19.34;34.53;102612.50;5049782;28;20422;-52
2022/04/27 11:01:25;;;;;;;6.90;2.72;;;;;;;19.09;35.46;102609.81;5052429;28;20118;-52
2022/04/27 11:04:08;;;;;;;8.20;2.50;;;;;;;19.25;34.90;102609.56;5052238;28;20404;-49
2022/04/27 11:07:03;;;;;;;;;;;;;;;18.31;35.68;102618.97;5050460;28;20413;-52
2022/04/27 11:09:50;;;;;;;8.20;2.67;;;;;;;18.67;36.41;102617.28;5049682;28;19931;-52
2022/04/27 11:12:19;;;;;;;5.38;2.38;;;;;;;18.37;35.77;102618.50;5052122;28;20444;-51
2022/04/27 11:14:48;;;;;;;7.28;2.40;;;;;;;18.65;35.57;102619.22;5052248;28;20078;-52
2022/04/27 11:17:28;;;;;;;7.22;3.42;;;;;;;18.92;35.09;102611.09;5051797;28;20060;-52
2022/04/27 11:19:57;;;;;;;6.97;2.63;;;;;;;19.71;34.51;102602.53;5051056;28;20381;-48
2022/04/27 11:22:26;;;;;;;5.65;2.40;;;;;;;19.88;33.39;102606.63;5048307;28;20099;-51
2022/04/27 11:24:59;;;;;;;7.35;2.42;;;;;;;19.87;32.21;102599.56;5049103;28;20057;-51
2022/04/27 11:27:33;;;;;;;5.75;2.30;;;;;;;19.88;32.02;102600.44;5051845;28;20531;-48
2022/04/27 11:30:02;;;;;;;4.68;2.10;;;;;;;20.07;33.15;102594.53;5051552;28;20057;-51
2022/04/27 11:32:31;;;;;;;4.97;2.47;;;;;;;20.55;32.34;102591.59;5051110;28;20049;-53
2022/04/27 11:35:00;;;;;;;6.18;2.22;;;;;;;20.63;32.59;102595.44;5046415;28;20049;-51
2022/04/27 11:37:28;;;;;;;3.65;1.73;;;;;;;20.75;30.44;102589.16;5049061;28;20049;-48
2022/04/27 11:40:12;;;;;;;5.63;2.00;;;;;;;20.54;31.12;102586.38;5051634;28;20044;-50
2022/04/27 11:42:44;;;;;;;5.82;2.08;;;;;;;20.98;30.90;102589.94;5047133;28;20508;-51
2022/04/27 11:45:13;;;;;;;5.97;2.30;;;;;;;21.16;30.83;102582.25;5049020;28;20508;-52
2022/04/27 11:47:42;;;;;;;6.68;2.30;;;;;;;21.38;30.99;102586.63;5051788;28;20484;-50
2022/04/27 11:50:10;;;;;;;5.07;2.03;;;;;;;21.62;30.13;102588.22;5051614;28;20508;-49
2022/04/27 11:52:39;;;;;;;5.22;2.20;;;;;;;21.40;29.54;102576.63;5051514;28;20037;-52
2022/04/27 11:55:14;;;;;;;4.68;2.17;;;;;;;21.10;29.88;102578.25;5051338;28;20076;-48
2022/04/27 11:57:43;;;;;;;5.05;2.00;;;;;;;20.77;30.45;102581.88;5051527;28;20040;-53